sensor_id;sensor_type;location;lat;lon;timestamp;P1;durP1;ratioP1;P2;durP2;ratioP2
48363;SDS011;34170;54.364;18.582;2023-03-23T00:01:26;15.20;;;10.38;;
48363;SDS011;34170;54.364;18.582;2023-03-23T00:03:56;16.17;;;10.15;;
48363;SDS011;34170;54.364;18.582;2023-03-23T00:06:24;15.07;;;10.27;;
48363;SDS011;34170;54.364;18.582;2023-03-23T00:08:53;15.02;;;10.18;;
48363;SDS011;34170;54.364;18.582;2023-03-23T00:11:26;15.90;;;10.23;;
48363;SDS011;34170;54.364;18.582;2023-03-23T00:13:57;17.50;;;11.02;;
48363;SDS011;34170;54.364;18.582;2023-03-23T00:16:27;13.70;;;9.55;;
48363;SDS011;34170;54.364;18.582;2023-03-23T00:19:02;15.47;;;10.20;;
48363;SDS011;34170;54.364;18.582;2023-03-23T00:21:34;13.70;;;9.90;;
48363;SDS011;34170;54.364;18.582;2023-03-23T00:24:03;14.07;;;9.35;;
48363;SDS011;34170;54.364;18.582;2023-03-23T00:26:31;17.25;;;10.70;;
48363;SDS011;34170;54.364;18.582;2023-03-23T00:29:00;15.27;;;11.18;;
48363;SDS011;34170;54.364;18.582;2023-03-23T00:31:28;15.57;;;10.52;;
48363;SDS011;34170;54.364;18.582;2023-03-23T00:33:58;16.00;;;10.68;;
48363;SDS011;34170;54.364;18.582;2023-03-23T00:36:27;16.35;;;9.70;;
48363;SDS011;34170;54.364;18.582;2023-03-23T00:38:54;15.95;;;9.95;;
48363;SDS011;34170;54.364;18.582;2023-03-23T00:41:23;16.48;;;10.43;;
48363;SDS011;34170;54.364;18.582;2023-03-23T00:43:53;16.63;;;10.50;;
48363;SDS011;34170;54.364;18.582;2023-03-23T00:46:21;14.68;;;10.00;;
48363;SDS011;34170;54.364;18.582;2023-03-23T00:48:48;15.52;;;9.65;;
48363;SDS011;34170;54.364;18.582;2023-03-23T00:51:17;16.80;;;9.70;;
48363;SDS011;34170;54.364;18.582;2023-03-23T00:53:44;15.15;;;9.70;;
48363;SDS011;34170;54.364;18.582;2023-03-23T00:56:11;15.88;;;10.43;;
48363;SDS011;34170;54.364;18.582;2023-03-23T00:58:38;16.23;;;10.02;;
48363;SDS011;34170;54.364;18.582;2023-03-23T01:01:05;16.40;;;10.30;;
48363;SDS011;34170;54.364;18.582;2023-03-23T01:03:33;16.15;;;9.77;;
48363;SDS011;34170;54.364;18.582;2023-03-23T01:06:04;15.63;;;10.07;;
48363;SDS011;34170;54.364;18.582;2023-03-23T01:08:34;17.65;;;10.20;;
48363;SDS011;34170;54.364;18.582;2023-03-23T01:11:05;13.98;;;10.15;;
48363;SDS011;34170;54.364;18.582;2023-03-23T01:13:32;15.88;;;9.80;;
48363;SDS011;34170;54.364;18.582;2023-03-23T01:15:58;14.68;;;10.00;;
48363;SDS011;34170;54.364;18.582;2023-03-23T01:18:25;14.55;;;9.15;;
48363;SDS011;34170;54.364;18.582;2023-03-23T01:20:51;17.00;;;8.82;;
48363;SDS011;34170;54.364;18.582;2023-03-23T01:23:18;13.23;;;8.82;;
48363;SDS011;34170;54.364;18.582;2023-03-23T01:25:44;16.00;;;10.15;;
48363;SDS011;34170;54.364;18.582;2023-03-23T01:28:11;16.13;;;8.77;;
48363;SDS011;34170;54.364;18.582;2023-03-23T01:30:37;15.68;;;10.07;;
48363;SDS011;34170;54.364;18.582;2023-03-23T01:33:04;12.35;;;8.57;;
48363;SDS011;34170;54.364;18.582;2023-03-23T01:35:30;18.33;;;9.13;;
48363;SDS011;34170;54.364;18.582;2023-03-23T01:37:56;18.35;;;9.45;;
48363;SDS011;34170;54.364;18.582;2023-03-23T01:40:23;11.60;;;8.57;;
48363;SDS011;34170;54.364;18.582;2023-03-23T01:42:52;11.07;;;8.70;;
48363;SDS011;34170;54.364;18.582;2023-03-23T01:50:31;14.15;;;8.70;;
48363;SDS011;34170;54.364;18.582;2023-03-23T01:53:04;13.07;;;9.23;;
48363;SDS011;34170;54.364;18.582;2023-03-23T01:55:36;13.68;;;9.05;;
48363;SDS011;34170;54.364;18.582;2023-03-23T01:58:07;11.38;;;8.32;;
48363;SDS011;34170;54.364;18.582;2023-03-23T02:00:34;13.63;;;8.93;;
48363;SDS011;34170;54.364;18.582;2023-03-23T02:03:03;14.32;;;8.52;;
48363;SDS011;34170;54.364;18.582;2023-03-23T02:05:33;12.38;;;7.90;;
48363;SDS011;34170;54.364;18.582;2023-03-23T02:08:10;13.13;;;8.98;;
48363;SDS011;34170;54.364;18.582;2023-03-23T02:10:40;12.38;;;8.32;;
48363;SDS011;34170;54.364;18.582;2023-03-23T02:13:08;12.93;;;8.02;;
48363;SDS011;34170;54.364;18.582;2023-03-23T02:15:44;12.15;;;7.65;;
48363;SDS011;34170;54.364;18.582;2023-03-23T02:18:24;15.30;;;8.73;;
48363;SDS011;34170;54.364;18.582;2023-03-23T02:37:32;14.65;;;7.60;;
48363;SDS011;34170;54.364;18.582;2023-03-23T02:40:09;11.18;;;7.68;;
48363;SDS011;34170;54.364;18.582;2023-03-23T02:42:47;13.88;;;7.32;;
48363;SDS011;34170;54.364;18.582;2023-03-23T02:45:17;11.27;;;7.40;;
48363;SDS011;34170;54.364;18.582;2023-03-23T02:47:47;10.77;;;7.32;;
48363;SDS011;34170;54.364;18.582;2023-03-23T02:50:16;13.50;;;7.50;;
48363;SDS011;34170;54.364;18.582;2023-03-23T02:52:45;11.13;;;7.35;;
48363;SDS011;34170;54.364;18.582;2023-03-23T02:55:14;14.90;;;7.30;;
48363;SDS011;34170;54.364;18.582;2023-03-23T02:57:42;11.10;;;7.07;;
48363;SDS011;34170;54.364;18.582;2023-03-23T03:00:13;13.70;;;7.05;;
48363;SDS011;34170;54.364;18.582;2023-03-23T03:02:43;12.90;;;7.15;;
48363;SDS011;34170;54.364;18.582;2023-03-23T03:08:08;11.93;;;7.05;;
48363;SDS011;34170;54.364;18.582;2023-03-23T03:10:55;10.90;;;6.70;;
48363;SDS011;34170;54.364;18.582;2023-03-23T03:18:50;12.52;;;6.85;;
48363;SDS011;34170;54.364;18.582;2023-03-23T03:21:23;11.30;;;7.28;;
48363;SDS011;34170;54.364;18.582;2023-03-23T03:23:56;10.25;;;6.72;;
48363;SDS011;34170;54.364;18.582;2023-03-23T03:26:28;10.48;;;6.65;;
48363;SDS011;34170;54.364;18.582;2023-03-23T03:29:11;10.30;;;5.80;;
48363;SDS011;34170;54.364;18.582;2023-03-23T03:34:13;8.68;;;6.00;;
48363;SDS011;34170;54.364;18.582;2023-03-23T03:36:47;11.70;;;6.47;;
48363;SDS011;34170;54.364;18.582;2023-03-23T03:39:16;12.35;;;6.85;;
48363;SDS011;34170;54.364;18.582;2023-03-23T03:41:43;11.18;;;6.53;;
48363;SDS011;34170;54.364;18.582;2023-03-23T03:44:10;11.23;;;6.05;;
48363;SDS011;34170;54.364;18.582;2023-03-23T03:46:37;11.00;;;6.47;;
48363;SDS011;34170;54.364;18.582;2023-03-23T03:49:05;11.05;;;6.40;;
48363;SDS011;34170;54.364;18.582;2023-03-23T03:51:35;10.25;;;6.82;;
48363;SDS011;34170;54.364;18.582;2023-03-23T03:54:03;10.98;;;7.00;;
48363;SDS011;34170;54.364;18.582;2023-03-23T03:56:30;12.30;;;6.15;;
48363;SDS011;34170;54.364;18.582;2023-03-23T03:59:10;11.20;;;6.30;;
48363;SDS011;34170;54.364;18.582;2023-03-23T04:01:51;13.98;;;6.30;;
48363;SDS011;34170;54.364;18.582;2023-03-23T04:04:20;9.05;;;6.22;;
48363;SDS011;34170;54.364;18.582;2023-03-23T04:06:48;11.65;;;6.25;;
48363;SDS011;34170;54.364;18.582;2023-03-23T04:09:15;9.05;;;5.93;;
48363;SDS011;34170;54.364;18.582;2023-03-23T04:11:42;11.10;;;6.40;;
48363;SDS011;34170;54.364;18.582;2023-03-23T04:14:34;9.38;;;5.95;;
48363;SDS011;34170;54.364;18.582;2023-03-23T04:17:01;9.30;;;5.85;;
48363;SDS011;34170;54.364;18.582;2023-03-23T04:19:28;15.45;;;7.13;;
48363;SDS011;34170;54.364;18.582;2023-03-23T04:22:00;9.15;;;5.47;;
48363;SDS011;34170;54.364;18.582;2023-03-23T04:24:29;11.85;;;6.13;;
48363;SDS011;34170;54.364;18.582;2023-03-23T04:26:57;9.85;;;5.47;;
48363;SDS011;34170;54.364;18.582;2023-03-23T04:29:27;13.55;;;6.63;;
48363;SDS011;34170;54.364;18.582;2023-03-23T04:32:12;10.98;;;6.50;;
48363;SDS011;34170;54.364;18.582;2023-03-23T04:34:43;11.55;;;6.57;;
48363;SDS011;34170;54.364;18.582;2023-03-23T04:37:11;12.15;;;6.00;;
48363;SDS011;34170;54.364;18.582;2023-03-23T04:39:39;9.82;;;5.78;;
48363;SDS011;34170;54.364;18.582;2023-03-23T04:42:08;9.40;;;6.20;;
48363;SDS011;34170;54.364;18.582;2023-03-23T04:44:53;9.38;;;6.10;;
48363;SDS011;34170;54.364;18.582;2023-03-23T04:47:30;10.80;;;5.97;;
48363;SDS011;34170;54.364;18.582;2023-03-23T04:50:13;12.57;;;7.00;;
48363;SDS011;34170;54.364;18.582;2023-03-23T04:52:41;10.45;;;6.05;;
48363;SDS011;34170;54.364;18.582;2023-03-23T04:55:13;11.45;;;6.18;;
48363;SDS011;34170;54.364;18.582;2023-03-23T04:57:43;12.20;;;5.95;;
48363;SDS011;34170;54.364;18.582;2023-03-23T05:00:38;10.18;;;5.65;;
48363;SDS011;34170;54.364;18.582;2023-03-23T05:03:05;11.77;;;5.80;;
48363;SDS011;34170;54.364;18.582;2023-03-23T05:05:33;8.55;;;5.53;;
48363;SDS011;34170;54.364;18.582;2023-03-23T05:08:05;9.88;;;6.35;;
48363;SDS011;34170;54.364;18.582;2023-03-23T05:10:35;8.90;;;5.43;;
48363;SDS011;34170;54.364;18.582;2023-03-23T05:13:09;10.65;;;6.07;;
48363;SDS011;34170;54.364;18.582;2023-03-23T05:15:35;9.35;;;5.95;;
48363;SDS011;34170;54.364;18.582;2023-03-23T05:18:03;12.18;;;6.10;;
48363;SDS011;34170;54.364;18.582;2023-03-23T05:20:31;9.85;;;5.95;;
48363;SDS011;34170;54.364;18.582;2023-03-23T05:23:03;8.73;;;6.10;;
48363;SDS011;34170;54.364;18.582;2023-03-23T05:25:34;8.80;;;5.85;;
48363;SDS011;34170;54.364;18.582;2023-03-23T05:28:18;11.32;;;6.30;;
48363;SDS011;34170;54.364;18.582;2023-03-23T05:31:04;10.68;;;5.90;;
48363;SDS011;34170;54.364;18.582;2023-03-23T05:33:32;10.73;;;5.85;;
48363;SDS011;34170;54.364;18.582;2023-03-23T05:36:11;12.10;;;6.90;;
48363;SDS011;34170;54.364;18.582;2023-03-23T05:38:57;11.68;;;6.72;;
48363;SDS011;34170;54.364;18.582;2023-03-23T05:41:37;12.80;;;6.32;;
48363;SDS011;34170;54.364;18.582;2023-03-23T05:44:05;13.18;;;6.53;;
48363;SDS011;34170;54.364;18.582;2023-03-23T05:46:44;9.73;;;6.35;;
48363;SDS011;34170;54.364;18.582;2023-03-23T05:49:11;13.38;;;6.93;;
48363;SDS011;34170;54.364;18.582;2023-03-23T05:51:39;9.93;;;5.97;;
48363;SDS011;34170;54.364;18.582;2023-03-23T05:54:06;12.65;;;6.10;;
48363;SDS011;34170;54.364;18.582;2023-03-23T05:56:33;9.68;;;5.25;;
48363;SDS011;34170;54.364;18.582;2023-03-23T05:59:18;9.65;;;5.28;;
48363;SDS011;34170;54.364;18.582;2023-03-23T06:01:47;10.07;;;5.95;;
48363;SDS011;34170;54.364;18.582;2023-03-23T06:04:14;10.02;;;5.00;;
48363;SDS011;34170;54.364;18.582;2023-03-23T06:06:54;9.88;;;5.60;;
48363;SDS011;34170;54.364;18.582;2023-03-23T06:09:21;10.15;;;5.05;;
48363;SDS011;34170;54.364;18.582;2023-03-23T06:12:21;11.93;;;5.63;;
48363;SDS011;34170;54.364;18.582;2023-03-23T06:15:06;9.75;;;5.38;;
48363;SDS011;34170;54.364;18.582;2023-03-23T06:18:00;9.07;;;5.05;;
48363;SDS011;34170;54.364;18.582;2023-03-23T06:20:40;10.40;;;5.53;;
48363;SDS011;34170;54.364;18.582;2023-03-23T06:23:21;7.00;;;4.65;;
48363;SDS011;34170;54.364;18.582;2023-03-23T06:25:48;9.90;;;5.18;;
48363;SDS011;34170;54.364;18.582;2023-03-23T06:28:15;8.05;;;4.82;;
48363;SDS011;34170;54.364;18.582;2023-03-23T06:30:46;7.35;;;4.82;;
48363;SDS011;34170;54.364;18.582;2023-03-23T06:33:12;10.07;;;4.90;;
48363;SDS011;34170;54.364;18.582;2023-03-23T06:36:17;8.57;;;4.47;;
48363;SDS011;34170;54.364;18.582;2023-03-23T06:38:58;8.35;;;4.60;;
48363;SDS011;34170;54.364;18.582;2023-03-23T06:41:34;8.30;;;3.92;;
48363;SDS011;34170;54.364;18.582;2023-03-23T06:44:01;9.18;;;4.43;;
48363;SDS011;34170;54.364;18.582;2023-03-23T06:46:30;8.23;;;4.57;;
48363;SDS011;34170;54.364;18.582;2023-03-23T06:49:15;8.50;;;4.15;;
48363;SDS011;34170;54.364;18.582;2023-03-23T06:51:49;8.95;;;5.18;;
48363;SDS011;34170;54.364;18.582;2023-03-23T06:54:15;6.60;;;4.38;;
48363;SDS011;34170;54.364;18.582;2023-03-23T06:56:44;11.82;;;5.10;;
48363;SDS011;34170;54.364;18.582;2023-03-23T06:59:10;10.40;;;5.53;;
48363;SDS011;34170;54.364;18.582;2023-03-23T07:01:38;10.15;;;5.50;;
48363;SDS011;34170;54.364;18.582;2023-03-23T07:04:05;13.52;;;6.10;;
48363;SDS011;34170;54.364;18.582;2023-03-23T07:06:52;12.90;;;5.47;;
48363;SDS011;34170;54.364;18.582;2023-03-23T07:09:18;14.10;;;5.57;;
48363;SDS011;34170;54.364;18.582;2023-03-23T07:11:44;8.95;;;5.05;;
48363;SDS011;34170;54.364;18.582;2023-03-23T07:16:53;9.20;;;4.75;;
48363;SDS011;34170;54.364;18.582;2023-03-23T07:19:19;8.82;;;4.25;;
48363;SDS011;34170;54.364;18.582;2023-03-23T07:21:46;10.70;;;4.28;;
48363;SDS011;34170;54.364;18.582;2023-03-23T07:24:13;9.52;;;4.05;;
48363;SDS011;34170;54.364;18.582;2023-03-23T07:27:18;5.97;;;3.45;;
48363;SDS011;34170;54.364;18.582;2023-03-23T07:29:46;6.80;;;3.78;;
48363;SDS011;34170;54.364;18.582;2023-03-23T07:32:20;9.90;;;4.35;;
48363;SDS011;34170;54.364;18.582;2023-03-23T07:34:46;6.88;;;4.00;;
48363;SDS011;34170;54.364;18.582;2023-03-23T07:37:48;8.70;;;3.92;;
48363;SDS011;34170;54.364;18.582;2023-03-23T07:40:16;8.63;;;4.47;;
48363;SDS011;34170;54.364;18.582;2023-03-23T07:42:51;7.20;;;4.18;;
48363;SDS011;34170;54.364;18.582;2023-03-23T07:45:58;6.47;;;4.07;;
48363;SDS011;34170;54.364;18.582;2023-03-23T07:48:31;7.88;;;4.05;;
48363;SDS011;34170;54.364;18.582;2023-03-23T07:50:58;8.73;;;4.80;;
48363;SDS011;34170;54.364;18.582;2023-03-23T07:53:27;7.88;;;4.40;;
48363;SDS011;34170;54.364;18.582;2023-03-23T07:56:04;9.98;;;4.68;;
48363;SDS011;34170;54.364;18.582;2023-03-23T07:58:46;7.35;;;4.30;;
48363;SDS011;34170;54.364;18.582;2023-03-23T08:01:13;8.05;;;4.00;;
48363;SDS011;34170;54.364;18.582;2023-03-23T08:03:42;7.07;;;3.65;;
48363;SDS011;34170;54.364;18.582;2023-03-23T08:06:32;6.82;;;4.38;;
48363;SDS011;34170;54.364;18.582;2023-03-23T08:09:21;9.18;;;4.47;;
48363;SDS011;34170;54.364;18.582;2023-03-23T08:12:23;6.72;;;3.90;;
48363;SDS011;34170;54.364;18.582;2023-03-23T08:15:16;9.65;;;3.80;;
48363;SDS011;34170;54.364;18.582;2023-03-23T08:18:08;7.95;;;4.10;;
48363;SDS011;34170;54.364;18.582;2023-03-23T08:20:55;7.45;;;3.78;;
48363;SDS011;34170;54.364;18.582;2023-03-23T08:23:31;8.05;;;3.80;;
48363;SDS011;34170;54.364;18.582;2023-03-23T08:26:24;7.63;;;4.03;;
48363;SDS011;34170;54.364;18.582;2023-03-23T08:29:18;8.23;;;3.83;;
48363;SDS011;34170;54.364;18.582;2023-03-23T08:32:12;8.50;;;3.40;;
48363;SDS011;34170;54.364;18.582;2023-03-23T08:34:56;7.40;;;3.90;;
48363;SDS011;34170;54.364;18.582;2023-03-23T08:37:41;8.10;;;3.95;;
48363;SDS011;34170;54.364;18.582;2023-03-23T08:40:24;10.55;;;3.72;;
48363;SDS011;34170;54.364;18.582;2023-03-23T08:43:17;6.05;;;4.05;;
48363;SDS011;34170;54.364;18.582;2023-03-23T08:46:02;7.75;;;3.75;;
48363;SDS011;34170;54.364;18.582;2023-03-23T08:49:11;7.13;;;3.38;;
48363;SDS011;34170;54.364;18.582;2023-03-23T08:51:56;6.47;;;3.70;;
48363;SDS011;34170;54.364;18.582;2023-03-23T08:54:31;8.75;;;3.92;;
48363;SDS011;34170;54.364;18.582;2023-03-23T08:57:20;7.50;;;4.10;;
48363;SDS011;34170;54.364;18.582;2023-03-23T09:00:20;7.93;;;4.07;;
48363;SDS011;34170;54.364;18.582;2023-03-23T09:03:09;8.30;;;4.22;;
48363;SDS011;34170;54.364;18.582;2023-03-23T09:06:08;6.47;;;3.88;;
48363;SDS011;34170;54.364;18.582;2023-03-23T09:08:44;7.45;;;4.07;;
48363;SDS011;34170;54.364;18.582;2023-03-23T09:11:11;9.18;;;3.97;;
48363;SDS011;34170;54.364;18.582;2023-03-23T09:13:37;6.70;;;3.45;;
48363;SDS011;34170;54.364;18.582;2023-03-23T09:16:05;6.50;;;3.90;;
48363;SDS011;34170;54.364;18.582;2023-03-23T09:18:32;6.47;;;3.47;;
48363;SDS011;34170;54.364;18.582;2023-03-23T09:21:01;5.25;;;3.42;;
48363;SDS011;34170;54.364;18.582;2023-03-23T09:23:28;6.18;;;3.53;;
48363;SDS011;34170;54.364;18.582;2023-03-23T09:25:56;5.60;;;3.25;;
48363;SDS011;34170;54.364;18.582;2023-03-23T09:28:22;7.30;;;3.33;;
48363;SDS011;34170;54.364;18.582;2023-03-23T09:30:48;6.55;;;3.75;;
48363;SDS011;34170;54.364;18.582;2023-03-23T09:33:15;4.68;;;3.35;;
48363;SDS011;34170;54.364;18.582;2023-03-23T09:35:42;6.38;;;3.33;;
48363;SDS011;34170;54.364;18.582;2023-03-23T09:38:08;7.22;;;3.42;;
48363;SDS011;34170;54.364;18.582;2023-03-23T09:43:27;6.25;;;3.13;;
48363;SDS011;34170;54.364;18.582;2023-03-23T09:54:04;5.95;;;3.10;;
48363;SDS011;34170;54.364;18.582;2023-03-23T09:56:52;5.40;;;2.70;;
48363;SDS011;34170;54.364;18.582;2023-03-23T09:59:31;3.90;;;2.67;;
48363;SDS011;34170;54.364;18.582;2023-03-23T10:04:49;5.53;;;2.95;;
48363;SDS011;34170;54.364;18.582;2023-03-23T10:07:22;4.55;;;2.97;;
48363;SDS011;34170;54.364;18.582;2023-03-23T10:09:55;7.10;;;3.83;;
48363;SDS011;34170;54.364;18.582;2023-03-23T10:15:17;4.28;;;2.67;;
48363;SDS011;34170;54.364;18.582;2023-03-23T10:18:07;6.53;;;3.38;;
48363;SDS011;34170;54.364;18.582;2023-03-23T10:20:53;5.53;;;2.92;;
48363;SDS011;34170;54.364;18.582;2023-03-23T10:26:17;5.65;;;2.63;;
48363;SDS011;34170;54.364;18.582;2023-03-23T10:32:11;4.68;;;2.70;;
48363;SDS011;34170;54.364;18.582;2023-03-23T10:37:37;3.45;;;2.42;;
48363;SDS011;34170;54.364;18.582;2023-03-23T10:40:15;4.05;;;2.17;;
48363;SDS011;34170;54.364;18.582;2023-03-23T10:42:45;5.45;;;2.40;;
48363;SDS011;34170;54.364;18.582;2023-03-23T10:45:14;4.22;;;2.40;;
48363;SDS011;34170;54.364;18.582;2023-03-23T10:50:32;3.50;;;1.85;;
48363;SDS011;34170;54.364;18.582;2023-03-23T10:53:01;4.05;;;1.95;;
48363;SDS011;34170;54.364;18.582;2023-03-23T10:55:38;3.17;;;1.80;;
48363;SDS011;34170;54.364;18.582;2023-03-23T10:58:08;2.67;;;1.65;;
48363;SDS011;34170;54.364;18.582;2023-03-23T11:00:41;2.20;;;1.73;;
48363;SDS011;34170;54.364;18.582;2023-03-23T11:05:43;2.80;;;1.65;;
48363;SDS011;34170;54.364;18.582;2023-03-23T11:08:15;2.58;;;1.50;;
48363;SDS011;34170;54.364;18.582;2023-03-23T11:13:38;2.90;;;1.40;;
48363;SDS011;34170;54.364;18.582;2023-03-23T11:16:10;3.75;;;1.50;;
48363;SDS011;34170;54.364;18.582;2023-03-23T11:18:38;3.35;;;1.55;;
48363;SDS011;34170;54.364;18.582;2023-03-23T11:21:07;1.73;;;1.17;;
48363;SDS011;34170;54.364;18.582;2023-03-23T11:23:38;2.03;;;1.20;;
48363;SDS011;34170;54.364;18.582;2023-03-23T11:26:11;1.60;;;1.20;;
48363;SDS011;34170;54.364;18.582;2023-03-23T11:28:55;1.85;;;1.33;;
48363;SDS011;34170;54.364;18.582;2023-03-23T11:31:26;2.17;;;1.25;;
48363;SDS011;34170;54.364;18.582;2023-03-23T11:37:10;1.88;;;1.13;;
48363;SDS011;34170;54.364;18.582;2023-03-23T11:39:32;2.72;;;1.38;;
48363;SDS011;34170;54.364;18.582;2023-03-23T11:42:20;1.77;;;1.00;;
48363;SDS011;34170;54.364;18.582;2023-03-23T11:47:42;2.38;;;0.90;;
48363;SDS011;34170;54.364;18.582;2023-03-23T11:50:18;2.00;;;0.90;;
48363;SDS011;34170;54.364;18.582;2023-03-23T11:58:20;1.20;;;0.88;;
48363;SDS011;34170;54.364;18.582;2023-03-23T12:00:49;0.85;;;0.65;;
48363;SDS011;34170;54.364;18.582;2023-03-23T12:03:26;1.25;;;0.50;;
48363;SDS011;34170;54.364;18.582;2023-03-23T12:06:06;1.52;;;0.82;;
48363;SDS011;34170;54.364;18.582;2023-03-23T12:11:36;1.83;;;0.75;;
48363;SDS011;34170;54.364;18.582;2023-03-23T12:16:44;2.33;;;1.15;;
48363;SDS011;34170;54.364;18.582;2023-03-23T12:26:09;9.07;;;0.90;;
48363;SDS011;34170;54.364;18.582;2023-03-23T12:31:01;2.10;;;0.88;;
48363;SDS011;34170;54.364;18.582;2023-03-23T12:41:48;0.98;;;0.70;;
48363;SDS011;34170;54.364;18.582;2023-03-23T12:44:35;1.52;;;0.75;;
48363;SDS011;34170;54.364;18.582;2023-03-23T12:47:25;2.15;;;0.85;;
48363;SDS011;34170;54.364;18.582;2023-03-23T12:50:40;3.80;;;0.95;;
48363;SDS011;34170;54.364;18.582;2023-03-23T12:53:10;3.20;;;0.70;;
48363;SDS011;34170;54.364;18.582;2023-03-23T12:55:45;2.20;;;0.80;;
48363;SDS011;34170;54.364;18.582;2023-03-23T12:58:17;3.65;;;0.80;;
48363;SDS011;34170;54.364;18.582;2023-03-23T13:03:41;1.77;;;0.75;;
48363;SDS011;34170;54.364;18.582;2023-03-23T13:11:51;0.80;;;0.55;;
48363;SDS011;34170;54.364;18.582;2023-03-23T13:22:39;2.25;;;0.88;;
48363;SDS011;34170;54.364;18.582;2023-03-23T13:25:36;1.08;;;0.50;;
48363;SDS011;34170;54.364;18.582;2023-03-23T13:28:21;2.63;;;0.77;;
48363;SDS011;34170;54.364;18.582;2023-03-23T13:33:37;2.47;;;0.70;;
48363;SDS011;34170;54.364;18.582;2023-03-23T13:36:07;3.15;;;1.25;;
48363;SDS011;34170;54.364;18.582;2023-03-23T13:38:44;2.75;;;0.90;;
48363;SDS011;34170;54.364;18.582;2023-03-23T13:41:14;2.17;;;0.70;;
48363;SDS011;34170;54.364;18.582;2023-03-23T13:43:43;1.95;;;0.90;;
48363;SDS011;34170;54.364;18.582;2023-03-23T13:48:50;1.17;;;0.70;;
48363;SDS011;34170;54.364;18.582;2023-03-23T13:54:06;1.23;;;0.70;;
48363;SDS011;34170;54.364;18.582;2023-03-23T13:59:15;2.00;;;0.90;;
48363;SDS011;34170;54.364;18.582;2023-03-23T14:01:54;1.73;;;0.80;;
48363;SDS011;34170;54.364;18.582;2023-03-23T14:04:22;1.42;;;0.70;;
48363;SDS011;34170;54.364;18.582;2023-03-23T14:06:57;2.10;;;0.85;;
48363;SDS011;34170;54.364;18.582;2023-03-23T14:09:39;2.90;;;1.00;;
48363;SDS011;34170;54.364;18.582;2023-03-23T14:12:15;1.77;;;0.90;;
48363;SDS011;34170;54.364;18.582;2023-03-23T14:14:46;1.10;;;0.80;;
48363;SDS011;34170;54.364;18.582;2023-03-23T14:17:22;2.65;;;0.98;;
48363;SDS011;34170;54.364;18.582;2023-03-23T14:19:53;1.83;;;0.70;;
48363;SDS011;34170;54.364;18.582;2023-03-23T14:22:33;1.40;;;0.75;;
48363;SDS011;34170;54.364;18.582;2023-03-23T14:25:08;2.50;;;0.90;;
48363;SDS011;34170;54.364;18.582;2023-03-23T14:27:40;2.05;;;0.93;;
48363;SDS011;34170;54.364;18.582;2023-03-23T14:30:21;1.90;;;0.60;;
48363;SDS011;34170;54.364;18.582;2023-03-23T14:32:54;2.65;;;1.15;;
48363;SDS011;34170;54.364;18.582;2023-03-23T14:35:31;2.67;;;0.98;;
48363;SDS011;34170;54.364;18.582;2023-03-23T14:37:59;2.65;;;0.98;;
48363;SDS011;34170;54.364;18.582;2023-03-23T14:40:26;2.15;;;0.88;;
48363;SDS011;34170;54.364;18.582;2023-03-23T14:42:54;2.00;;;0.80;;
48363;SDS011;34170;54.364;18.582;2023-03-23T14:45:22;2.10;;;1.02;;
48363;SDS011;34170;54.364;18.582;2023-03-23T14:47:54;2.83;;;1.10;;
48363;SDS011;34170;54.364;18.582;2023-03-23T14:50:30;1.63;;;0.80;;
48363;SDS011;34170;54.364;18.582;2023-03-23T14:53:09;1.88;;;0.95;;
48363;SDS011;34170;54.364;18.582;2023-03-23T14:55:55;2.78;;;1.23;;
48363;SDS011;34170;54.364;18.582;2023-03-23T14:58:25;2.65;;;1.20;;
48363;SDS011;34170;54.364;18.582;2023-03-23T15:00:57;2.50;;;1.05;;
48363;SDS011;34170;54.364;18.582;2023-03-23T15:03:27;3.42;;;0.95;;
48363;SDS011;34170;54.364;18.582;2023-03-23T15:05:57;2.70;;;1.15;;
48363;SDS011;34170;54.364;18.582;2023-03-23T15:08:27;3.40;;;1.50;;
48363;SDS011;34170;54.364;18.582;2023-03-23T15:13:33;3.65;;;1.52;;
48363;SDS011;34170;54.364;18.582;2023-03-23T15:16:19;4.03;;;1.27;;
48363;SDS011;34170;54.364;18.582;2023-03-23T15:18:50;4.13;;;1.48;;
48363;SDS011;34170;54.364;18.582;2023-03-23T15:21:45;2.55;;;1.60;;
48363;SDS011;34170;54.364;18.582;2023-03-23T15:24:39;3.13;;;1.42;;
48363;SDS011;34170;54.364;18.582;2023-03-23T15:27:17;3.10;;;1.40;;
48363;SDS011;34170;54.364;18.582;2023-03-23T15:29:54;2.80;;;1.25;;
48363;SDS011;34170;54.364;18.582;2023-03-23T15:34:54;3.87;;;1.40;;
48363;SDS011;34170;54.364;18.582;2023-03-23T15:37:29;2.05;;;1.40;;
48363;SDS011;34170;54.364;18.582;2023-03-23T15:39:57;2.15;;;1.17;;
48363;SDS011;34170;54.364;18.582;2023-03-23T15:42:29;2.92;;;1.05;;
48363;SDS011;34170;54.364;18.582;2023-03-23T15:50:13;2.33;;;1.30;;
48363;SDS011;34170;54.364;18.582;2023-03-23T15:52:51;2.80;;;1.25;;
48363;SDS011;34170;54.364;18.582;2023-03-23T15:55:24;3.28;;;1.40;;
48363;SDS011;34170;54.364;18.582;2023-03-23T15:57:52;2.95;;;1.40;;
48363;SDS011;34170;54.364;18.582;2023-03-23T16:00:22;4.55;;;1.67;;
48363;SDS011;34170;54.364;18.582;2023-03-23T16:02:56;5.55;;;1.50;;
48363;SDS011;34170;54.364;18.582;2023-03-23T16:05:29;3.55;;;1.42;;
48363;SDS011;34170;54.364;18.582;2023-03-23T16:08:09;3.70;;;1.38;;
48363;SDS011;34170;54.364;18.582;2023-03-23T16:10:39;5.45;;;2.03;;
48363;SDS011;34170;54.364;18.582;2023-03-23T16:13:09;3.53;;;2.05;;
48363;SDS011;34170;54.364;18.582;2023-03-23T16:15:37;3.95;;;1.63;;
48363;SDS011;34170;54.364;18.582;2023-03-23T16:18:04;4.65;;;1.50;;
48363;SDS011;34170;54.364;18.582;2023-03-23T16:20:32;4.82;;;1.48;;
48363;SDS011;34170;54.364;18.582;2023-03-23T16:23:00;3.63;;;1.63;;
48363;SDS011;34170;54.364;18.582;2023-03-23T16:25:27;4.30;;;1.83;;
48363;SDS011;34170;54.364;18.582;2023-03-23T16:27:55;4.25;;;1.70;;
48363;SDS011;34170;54.364;18.582;2023-03-23T16:30:23;4.18;;;1.90;;
48363;SDS011;34170;54.364;18.582;2023-03-23T16:32:52;5.13;;;1.65;;
48363;SDS011;34170;54.364;18.582;2023-03-23T16:35:23;3.28;;;1.48;;
48363;SDS011;34170;54.364;18.582;2023-03-23T16:37:52;4.03;;;1.90;;
48363;SDS011;34170;54.364;18.582;2023-03-23T16:40:35;2.38;;;1.20;;
48363;SDS011;34170;54.364;18.582;2023-03-23T16:43:03;5.70;;;2.05;;
48363;SDS011;34170;54.364;18.582;2023-03-23T16:45:36;3.08;;;1.67;;
48363;SDS011;34170;54.364;18.582;2023-03-23T16:48:08;4.85;;;2.05;;
48363;SDS011;34170;54.364;18.582;2023-03-23T16:50:37;3.63;;;0.77;;
48363;SDS011;34170;54.364;18.582;2023-03-23T16:53:05;5.00;;;0.68;;
48363;SDS011;34170;54.364;18.582;2023-03-23T16:55:35;4.35;;;0.20;;
48363;SDS011;34170;54.364;18.582;2023-03-23T16:58:03;1.65;;;0.50;;
48363;SDS011;34170;54.364;18.582;2023-03-23T17:00:45;3.80;;;0.80;;
48363;SDS011;34170;54.364;18.582;2023-03-23T17:03:14;3.15;;;0.90;;
48363;SDS011;34170;54.364;18.582;2023-03-23T17:05:44;3.33;;;1.08;;
48363;SDS011;34170;54.364;18.582;2023-03-23T17:08:13;4.15;;;0.90;;
48363;SDS011;34170;54.364;18.582;2023-03-23T17:10:41;2.97;;;1.10;;
48363;SDS011;34170;54.364;18.582;2023-03-23T17:13:09;3.00;;;1.17;;
48363;SDS011;34170;54.364;18.582;2023-03-23T17:15:38;2.92;;;0.95;;
48363;SDS011;34170;54.364;18.582;2023-03-23T17:18:10;2.53;;;1.08;;
48363;SDS011;34170;54.364;18.582;2023-03-23T17:20:38;4.45;;;1.33;;
48363;SDS011;34170;54.364;18.582;2023-03-23T17:23:06;2.97;;;1.33;;
48363;SDS011;34170;54.364;18.582;2023-03-23T17:25:33;3.42;;;1.33;;
48363;SDS011;34170;54.364;18.582;2023-03-23T17:28:01;2.75;;;1.35;;